Time;durP1;ratioP1;P1;durP2;ratioP2;P2;SDS_P1;SDS_P2;PMS_P1;PMS_P2;Temp;Humidity;BMP_temperature;BMP_pressure;BME280_temperature;BME280_humidity;BME280_pressure;Samples;Min_cycle;Max_cycle;Signal;HPM_P1;HPM_P2
2023/01/02 00:00:51;;;;;;;9.50;6.30;;;11.70;1.00;;;;;;5043392;28;20268;-68
2023/01/02 00:03:16;;;;;;;13.60;6.60;;;11.40;1.00;;;;;;5048475;28;20204;-69
2023/01/02 00:05:42;;;;;;;10.03;6.20;;;11.70;1.00;;;;;;5050126;28;20262;-68
2023/01/02 00:08:07;;;;;;;10.00;6.10;;;11.70;1.00;;;;;;5052575;28;20173;-69
2023/01/02 00:10:33;;;;;;;13.43;6.80;;;11.60;1.00;;;;;;5037575;28;20264;-70
2023/01/02 00:12:59;;;;;;;15.73;6.70;;;11.60;1.00;;;;;;5048479;28;20315;-68
2023/01/02 00:15:24;;;;;;;11.27;5.80;;;11.60;1.00;;;;;;5049675;28;20326;-68
2023/01/02 00:17:50;;;;;;;9.73;5.70;;;11.60;1.00;;;;;;5034416;28;20313;-68
2023/01/02 00:20:15;;;;;;;8.97;5.77;;;11.60;1.00;;;;;;5044204;28;20256;-68
2023/01/02 00:22:41;;;;;;;9.00;6.47;;;11.60;1.00;;;;;;5042315;28;20184;-68
2023/01/02 00:25:08;;;;;;;11.73;7.00;;;11.60;1.00;;;;;;5047570;28;20221;-69
2023/01/02 00:27:33;;;;;;;7.80;5.63;;;11.70;1.00;;;;;;5036422;28;20268;-68
2023/01/02 00:29:59;;;;;;;8.90;5.50;;;11.70;1.00;;;;;;5051803;28;20507;-68
2023/01/02 00:32:24;;;;;;;10.97;6.33;;;11.80;1.00;;;;;;5043703;28;20182;-70
2023/01/02 00:34:50;;;;;;;10.17;6.17;;;11.80;1.00;;;;;;5044420;28;20201;-69
2023/01/02 00:37:15;;;;;;;10.20;5.30;;;12.20;1.00;;;;;;5049227;28;20688;-68
2023/01/02 00:39:41;;;;;;;16.90;5.53;;;11.90;1.00;;;;;;5048256;28;20186;-69
2023/01/02 00:42:06;;;;;;;9.50;5.13;;;11.90;1.00;;;;;;5038770;28;20177;-67
2023/01/02 00:44:32;;;;;;;8.27;5.20;;;12.00;1.00;;;;;;5048525;28;20225;-68
2023/01/02 00:46:57;;;;;;;8.83;5.03;;;12.00;1.00;;;;;;5038940;28;20646;-69
2023/01/02 00:49:23;;;;;;;9.80;5.73;;;12.10;1.00;;;;;;5043879;22;20230;-72
2023/01/02 00:51:48;;;;;;;8.77;5.13;;;12.10;1.00;;;;;;5012635;28;20182;-72
2023/01/02 00:54:14;;;;;;;10.63;5.63;;;12.20;1.00;;;;;;5009520;28;20179;-71
2023/01/02 00:56:39;;;;;;;8.80;5.40;;;12.20;1.00;;;;;;5010964;28;20289;-72
2023/01/02 00:59:05;;;;;;;7.97;5.27;;;12.10;1.00;;;;;;5009173;28;20616;-72
2023/01/02 01:01:30;;;;;;;9.30;5.93;;;12.10;1.00;;;;;;5009894;28;20401;-72
2023/01/02 01:03:56;;;;;;;9.63;5.50;;;12.10;1.00;;;;;;5010611;28;20580;-72
2023/01/02 01:06:21;;;;;;;11.43;5.37;;;12.10;1.00;;;;;;5018902;28;20231;-72
2023/01/02 01:08:47;;;;;;;8.20;5.53;;;12.10;1.00;;;;;;5004828;28;20199;-71
2023/01/02 01:11:14;;;;;;;7.97;5.33;;;12.00;1.00;;;;;;5008276;28;20202;-73
2023/01/02 01:13:40;;;;;;;11.10;6.00;;;11.90;1.00;;;;;;5011140;28;20186;-72
2023/01/02 01:16:13;;;;;;;14.30;5.47;;;11.80;1.00;;;;;;5009866;28;20461;-72
2023/01/02 01:18:39;;;;;;;7.97;5.43;;;11.80;1.00;;;;;;5010999;28;20199;-72
2023/01/02 01:21:15;;;;;;;8.40;4.93;;;11.80;1.00;;;;;;5009141;28;20487;-70
2023/01/02 01:23:41;;;;;;;15.20;5.83;;;11.70;1.00;;;;;;5020472;28;20185;-72
2023/01/02 01:26:10;;;;;;;8.03;5.53;;;11.70;1.00;;;;;;5010586;28;20405;-72
2023/01/02 01:28:36;;;;;;;10.00;5.47;;;11.70;1.00;;;;;;5009141;28;20213;-69
2023/01/02 01:31:04;;;;;;;12.90;5.70;;;11.80;1.00;;;;;;5010212;28;20406;-71
2023/01/02 01:33:30;;;;;;;9.07;5.17;;;11.70;1.00;;;;;;5009514;28;20931;-72
2023/01/02 01:36:03;;;;;;;8.40;5.30;;;11.70;1.00;;;;;;5010933;28;20410;-73
2023/01/02 01:38:30;;;;;;;10.70;6.03;;;11.70;1.00;;;;;;5006736;28;20460;-72
2023/01/02 01:40:56;;;;;;;8.70;5.37;;;11.70;1.00;;;;;;5007640;28;20587;-71
2023/01/02 01:43:51;;;;;;;7.53;5.13;;;11.70;1.00;;;;;;5010883;28;20492;-72
2023/01/02 01:46:25;;;;;;;9.47;5.60;;;11.70;1.00;;;;;;5005555;28;20645;-72
2023/01/02 01:49:00;;;;;;;12.00;5.93;;;11.70;1.00;;;;;;5008209;28;20878;-72
2023/01/02 01:51:28;;;;;;;14.40;5.53;;;11.60;1.00;;;;;;5006836;28;20440;-72
2023/01/02 01:54:02;;;;;;;8.20;4.70;;;11.50;1.00;;;;;;5031451;28;20486;-72
2023/01/02 01:56:28;;;;;;;9.83;4.97;;;11.50;1.00;;;;;;5010780;28;20464;-72
2023/01/02 01:58:53;;;;;;;11.63;5.20;;;11.50;1.00;;;;;;5008763;28;20955;-72
2023/01/02 02:01:19;;;;;;;12.37;5.53;;;11.50;1.00;;;;;;5009096;28;20183;-72
2023/01/02 02:03:48;;;;;;;8.73;4.80;;;11.60;1.00;;;;;;5007648;28;20257;-69
2023/01/02 02:06:16;;;;;;;9.93;5.33;;;11.60;1.00;;;;;;5009474;28;20673;-73
2023/01/02 02:08:50;;;;;;;7.23;5.27;;;11.60;1.00;;;;;;5008734;28;20457;-73
2023/01/02 02:11:16;;;;;;;8.60;4.93;;;11.60;1.00;;;;;;5007587;28;20440;-72
2023/01/02 02:13:42;;;;;;;8.67;5.30;;;11.60;1.00;;;;;;5010412;28;20920;-72
2023/01/02 02:16:17;;;;;;;6.10;4.87;;;11.60;1.00;;;;;;5008578;28;20468;-72
2023/01/02 02:19:20;;;;;;;7.83;4.97;;;11.50;1.00;;;;;;5005694;28;20190;-73
2023/01/02 02:21:54;;;;;;;9.37;4.87;;;11.50;1.00;;;;;;5007879;28;20559;-72
2023/01/02 02:24:48;;;;;;;8.27;4.97;;;11.50;1.00;;;;;;5003504;28;20453;-72
2023/01/02 02:27:22;;;;;;;8.00;4.60;;;11.50;1.00;;;;;;5003063;28;20433;-73
2023/01/02 02:30:17;;;;;;;14.17;6.50;;;11.50;1.00;;;;;;5006934;28;20488;-72
2023/01/02 02:33:31;;;;;;;7.40;5.23;;;11.50;1.00;;;;;;5009338;28;20449;-72
2023/01/02 02:36:31;;;;;;;8.37;5.23;;;11.50;1.00;;;;;;4948554;29;20420;-72
2023/01/02 02:39:18;;;;;;;7.50;4.70;;;11.50;1.00;;;;;;4993190;28;20465;-73
2023/01/02 02:41:54;;;;;;;8.83;4.43;;;11.50;1.00;;;;;;5008186;28;20441;-72
2023/01/02 02:44:57;;;;;;;8.67;4.00;;;11.60;1.00;;;;;;5007916;28;20421;-72
2023/01/02 02:47:33;;;;;;;7.60;4.00;;;11.60;1.00;;;;;;5008413;28;20441;-72
2023/01/02 02:50:19;;;;;;;6.57;4.23;;;11.60;1.00;;;;;;5009082;28;20456;-72
2023/01/02 02:52:57;;;;;;;7.47;4.33;;;11.60;1.00;;;;;;5006041;28;20522;-72
2023/01/02 02:55:41;;;;;;;10.73;4.37;;;11.60;1.00;;;;;;5007355;28;20421;-72
2023/01/02 02:58:07;;;;;;;10.40;5.10;;;11.70;1.00;;;;;;5008822;28;20979;-72
2023/01/02 03:00:33;;;;;;;5.03;3.87;;;11.70;1.00;;;;;;5008184;28;20444;-72
2023/01/02 03:02:58;;;;;;;7.70;4.70;;;11.70;1.00;;;;;;5006254;28;20792;-72
2023/01/02 03:05:36;;;;;;;7.77;4.10;;;11.60;1.00;;;;;;5009498;28;20238;-72
2023/01/02 03:08:21;;;;;;;14.27;4.67;;;11.60;1.00;;;;;;5006676;28;20189;-72
2023/01/02 03:10:59;;;;;;;6.40;4.10;;;11.60;1.00;;;;;;5007455;28;20452;-72
2023/01/02 03:13:32;;;;;;;5.87;3.90;;;11.50;1.00;;;;;;5009456;28;20413;-72
2023/01/02 03:16:02;;;;;;;7.50;4.20;;;11.40;1.00;;;;;;5006439;28;20437;-72
2023/01/02 03:18:32;;;;;;;8.73;4.37;;;11.40;1.00;;;;;;5005862;28;20987;-72
2023/01/02 03:21:17;;;;;;;9.23;4.20;;;11.40;1.00;;;;;;5007539;28;20499;-72
2023/01/02 03:23:45;;;;;;;9.50;4.30;;;11.90;1.00;;;;;;5009154;28;20424;-72
2023/01/02 03:26:14;;;;;;;9.40;4.73;;;11.40;1.00;;;;;;5007610;28;20518;-73
2023/01/02 03:28:42;;;;;;;11.63;5.53;;;11.50;1.00;;;;;;5011680;28;20440;-72
2023/01/02 03:31:13;;;;;;;7.70;4.50;;;11.50;1.00;;;;;;5006699;28;20486;-72
2023/01/02 03:33:43;;;;;;;8.40;3.73;;;11.50;1.00;;;;;;5009296;28;20425;-73
2023/01/02 03:36:15;;;;;;;7.93;4.27;;;11.50;1.00;;;;;;5007878;28;20445;-72
2023/01/02 03:38:47;;;;;;;8.60;4.73;;;11.40;1.00;;;;;;5008861;28;20982;-72
2023/01/02 03:41:27;;;;;;;10.30;3.70;;;11.40;1.00;;;;;;5006790;28;20781;-72
2023/01/02 03:43:55;;;;;;;5.90;3.40;;;11.40;1.00;;;;;;5008621;28;20440;-72
2023/01/02 03:46:55;;;;;;;6.70;4.20;;;11.60;1.00;;;;;;5007543;28;20429;-72
2023/01/02 03:49:33;;;;;;;8.10;4.10;;;11.60;1.00;;;;;;4974940;28;20543;-72
2023/01/02 03:51:59;;;;;;;5.93;3.60;;;11.60;1.00;;;;;;5008251;28;20785;-72
2023/01/02 03:54:26;;;;;;;6.97;3.73;;;11.70;1.00;;;;;;5013657;28;20969;-69
2023/01/02 03:57:00;;;;;;;6.10;3.67;;;11.80;1.00;;;;;;5010197;28;20820;-72
2023/01/02 04:00:05;;;;;;;6.00;3.20;;;11.80;1.00;;;;;;5006957;28;20963;-72
2023/01/02 04:02:54;;;;;;;5.10;3.73;;;11.80;1.00;;;;;;5005149;28;20454;-72
2023/01/02 04:05:31;;;;;;;4.50;3.60;;;11.90;1.00;;;;;;5008292;28;20401;-70
2023/01/02 04:08:21;;;;;;;8.43;4.40;;;11.80;1.00;;;;;;5004987;28;20954;-73
2023/01/02 04:10:50;;;;;;;7.73;3.30;;;11.80;1.00;;;;;;5006390;28;20464;-72
2023/01/02 04:13:23;;;;;;;4.80;3.40;;;11.70;1.00;;;;;;5008756;28;20457;-72
2023/01/02 04:15:51;;;;;;;7.73;4.10;;;11.70;1.00;;;;;;5005954;28;20442;-72
2023/01/02 04:18:19;;;;;;;6.13;4.43;;;11.70;1.00;;;;;;5007952;28;20511;-72
2023/01/02 04:20:48;;;;;;;8.37;3.77;;;11.80;1.00;;;;;;5007237;28;20920;-72
2023/01/02 04:23:24;;;;;;;4.87;3.40;;;11.70;1.00;;;;;;5006440;28;20504;-72
2023/01/02 04:25:59;;;;;;;7.90;4.27;;;11.70;1.00;;;;;;5008725;28;20423;-73
2023/01/02 04:28:28;;;;;;;5.70;3.53;;;11.70;1.00;;;;;;5012236;28;20472;-72
2023/01/02 04:30:58;;;;;;;6.57;3.47;;;11.60;1.00;;;;;;5009993;28;20621;-71
2023/01/02 04:33:26;;;;;;;4.63;3.50;;;11.60;1.00;;;;;;5012083;28;20409;-72
2023/01/02 04:35:51;;;;;;;12.37;3.87;;;11.60;1.00;;;;;;5011140;28;20742;-72
2023/01/02 04:38:17;;;;;;;10.40;2.73;;;11.70;1.00;;;;;;5010131;28;20538;-71
2023/01/02 04:40:43;;;;;;;6.70;4.10;;;11.60;1.00;;;;;;5009879;28;20232;-72
2023/01/02 04:43:26;;;;;;;12.10;5.37;;;11.70;1.00;;;;;;5009786;28;20310;-72
2023/01/02 04:45:52;;;;;;;6.20;4.20;;;11.90;1.00;;;;;;5009267;28;20185;-72
2023/01/02 04:48:17;;;;;;;8.83;4.53;;;11.90;1.00;;;;;;5009761;28;20457;-72
2023/01/02 04:50:44;;;;;;;5.93;3.93;;;11.90;1.00;;;;;;5011670;28;20190;-72
2023/01/02 04:53:09;;;;;;;7.57;4.37;;;11.80;1.00;;;;;;5016426;28;20262;-72
2023/01/02 04:55:36;;;;;;;6.37;3.77;;;11.80;1.00;;;;;;5006312;28;20433;-72
2023/01/02 04:58:02;;;;;;;6.20;4.13;;;11.80;1.00;;;;;;5017590;28;20191;-72
2023/01/02 05:00:28;;;;;;;8.83;3.70;;;11.80;1.00;;;;;;5010858;28;20867;-72
2023/01/02 05:02:53;;;;;;;6.03;3.60;;;11.90;1.00;;;;;;5009232;28;20472;-72
2023/01/02 05:05:19;;;;;;;9.00;3.60;;;12.00;1.00;;;;;;5010408;28;20221;-70
2023/01/02 05:07:45;;;;;;;7.83;3.60;;;12.00;1.00;;;;;;5009936;28;20190;-72
2023/01/02 05:10:10;;;;;;;6.10;3.20;;;12.00;1.00;;;;;;5010373;28;20756;-72
2023/01/02 05:12:36;;;;;;;7.40;3.60;;;12.00;1.00;;;;;;5008690;28;20179;-72
2023/01/02 05:15:04;;;;;;;4.40;3.17;;;12.00;1.00;;;;;;5011054;28;20185;-72
2023/01/02 05:17:38;;;;;;;7.30;3.10;;;11.90;1.00;;;;;;5009171;28;20808;-72
2023/01/02 05:20:06;;;;;;;14.90;4.20;;;12.00;1.00;;;;;;5009612;28;20441;-72
2023/01/02 05:25:15;;;;;;;7.30;3.40;;;12.20;1.00;;;;;;5016312;28;20846;-73
2023/01/02 05:27:41;;;;;;;7.97;3.40;;;12.10;1.00;;;;;;5011226;28;20464;-72
2023/01/02 05:30:07;;;;;;;6.47;3.93;;;11.90;1.00;;;;;;5010736;28;20677;-72
2023/01/02 05:32:33;;;;;;;7.13;3.67;;;11.70;1.00;;;;;;5009186;28;20225;-72
2023/01/02 05:34:58;;;;;;;9.80;3.60;;;11.60;1.00;;;;;;5009834;28;20421;-73
2023/01/02 05:37:24;;;;;;;7.23;4.27;;;11.40;1.00;;;;;;5006835;28;20208;-70
2023/01/02 05:39:49;;;;;;;9.03;3.50;;;11.30;1.00;;;;;;5008527;28;20213;-72
2023/01/02 05:42:15;;;;;;;6.90;3.60;;;11.30;1.00;;;;;;5007848;28;20541;-72
2023/01/02 05:44:41;;;;;;;10.70;3.30;;;11.10;1.00;;;;;;5008887;28;20235;-72
2023/01/02 05:47:06;;;;;;;10.43;4.17;;;11.00;1.00;;;;;;5008359;28;20186;-72
2023/01/02 05:49:32;;;;;;;7.60;3.53;;;11.00;1.00;;;;;;5010199;28;20592;-72
2023/01/02 05:51:57;;;;;;;4.73;3.53;;;10.90;1.00;;;;;;5009315;28;20665;-72
2023/01/02 05:54:23;;;;;;;6.63;4.00;;;10.90;1.00;;;;;;5008818;28;20178;-72
2023/01/02 05:56:48;;;;;;;10.87;4.40;;;10.80;1.00;;;;;;5009170;28;20210;-72
2023/01/02 05:59:14;;;;;;;5.23;4.23;;;10.70;1.00;;;;;;5007567;28;20233;-71
2023/01/02 06:01:40;;;;;;;8.67;4.80;;;10.70;1.00;;;;;;5007870;28;20178;-72
2023/01/02 06:04:06;;;;;;;8.37;4.87;;;10.70;1.00;;;;;;5008725;28;20516;-71
2023/01/02 06:06:37;;;;;;;8.00;4.47;;;10.60;1.00;;;;;;5009765;28;20175;-73
2023/01/02 06:09:04;;;;;;;4.63;3.60;;;10.60;1.00;;;;;;5001191;28;20198;-71
2023/01/02 06:11:30;;;;;;;7.73;5.27;;;10.60;1.00;;;;;;5008166;28;20494;-72
2023/01/02 06:13:56;;;;;;;8.53;4.40;;;10.50;1.00;;;;;;5009855;28;20409;-72
2023/01/02 06:16:23;;;;;;;9.27;4.17;;;10.50;1.00;;;;;;5007790;28;20994;-71
2023/01/02 06:18:48;;;;;;;9.13;3.80;;;10.40;1.00;;;;;;5007723;28;20496;-72
2023/01/02 06:21:16;;;;;;;8.93;3.60;;;10.30;1.00;;;;;;5007605;28;20461;-72
2023/01/02 06:23:42;;;;;;;5.23;3.70;;;10.30;1.00;;;;;;5009930;28;20170;-71
2023/01/02 06:26:16;;;;;;;6.57;4.40;;;10.20;1.00;;;;;;5006640;28;21010;-72
2023/01/02 06:28:43;;;;;;;7.97;4.67;;;10.20;1.00;;;;;;5008081;28;20205;-73
2023/01/02 06:31:15;;;;;;;11.70;4.03;;;10.20;1.00;;;;;;5006914;28;20430;-71
2023/01/02 06:33:42;;;;;;;6.10;4.23;;;10.20;1.00;;;;;;5009662;28;20401;-72
2023/01/02 06:36:16;;;;;;;13.10;4.30;;;10.20;1.00;;;;;;5008759;28;20447;-72
2023/01/02 06:38:42;;;;;;;6.27;3.93;;;10.20;1.00;;;;;;5009329;28;20430;-70
2023/01/02 06:41:08;;;;;;;8.70;3.70;;;10.20;1.00;;;;;;5005600;28;20491;-72
2023/01/02 06:43:35;;;;;;;5.70;3.80;;;10.20;1.00;;;;;;5010153;28;20418;-71
2023/01/02 06:46:03;;;;;;;5.50;3.77;;;10.30;1.00;;;;;;5005999;28;20788;-72
2023/01/02 06:48:31;;;;;;;8.20;4.20;;;10.30;1.00;;;;;;5010239;28;20591;-71
2023/01/02 06:50:58;;;;;;;6.70;3.90;;;10.30;1.00;;;;;;5006257;28;20535;-71
2023/01/02 06:53:24;;;;;;;5.63;3.83;;;10.30;1.00;;;;;;5006631;28;20565;-72
2023/01/02 06:55:57;;;;;;;9.00;4.40;;;10.20;1.00;;;;;;5007207;28;20487;-74
2023/01/02 06:58:23;;;;;;;8.17;4.60;;;10.30;1.00;;;;;;5007516;28;20461;-71
2023/01/02 07:00:49;;;;;;;8.93;4.67;;;10.20;1.00;;;;;;5004531;28;20429;-72
2023/01/02 07:03:15;;;;;;;7.13;3.90;;;10.20;1.00;;;;;;5008817;28;20433;-72
2023/01/02 07:05:41;;;;;;;6.87;4.53;;;10.30;1.00;;;;;;5006808;28;20191;-72
2023/01/02 07:08:07;;;;;;;6.23;4.40;;;10.30;1.00;;;;;;5009034;28;20425;-71
2023/01/02 07:10:33;;;;;;;7.43;4.03;;;10.30;1.00;;;;;;5005068;28;20443;-72
2023/01/02 07:12:59;;;;;;;4.73;3.60;;;10.30;1.00;;;;;;5005911;28;20796;-74
2023/01/02 07:15:24;;;;;;;10.00;4.50;;;10.40;1.00;;;;;;5007757;28;20209;-72
2023/01/02 07:17:50;;;;;;;8.73;4.20;;;10.40;1.00;;;;;;5008460;28;20198;-72
2023/01/02 07:20:16;;;;;;;8.50;3.90;;;10.50;1.00;;;;;;5007684;28;20305;-72
2023/01/02 07:22:41;;;;;;;6.80;4.30;;;10.60;1.00;;;;;;5009511;28;20178;-71
2023/01/02 07:25:07;;;;;;;7.47;3.90;;;10.60;1.00;;;;;;5006927;28;20489;-71
2023/01/02 07:27:33;;;;;;;5.47;3.70;;;10.70;1.00;;;;;;5008348;28;20178;-72
2023/01/02 07:29:58;;;;;;;7.93;4.33;;;10.70;1.00;;;;;;5004789;28;20511;-72
2023/01/02 07:32:24;;;;;;;7.63;3.83;;;10.70;1.00;;;;;;5008108;28;20198;-74
2023/01/02 07:34:50;;;;;;;7.40;4.33;;;10.70;1.00;;;;;;5008134;28;20205;-70
2023/01/02 07:37:16;;;;;;;10.50;4.30;;;10.60;1.00;;;;;;5009787;28;20205;-72
2023/01/02 07:39:41;;;;;;;6.00;3.70;;;10.60;1.00;;;;;;5004649;28;20461;-71
2023/01/02 07:42:07;;;;;;;8.07;4.33;;;10.70;1.00;;;;;;5005964;28;20174;-72
2023/01/02 07:44:32;;;;;;;5.83;3.80;;;10.70;1.00;;;;;;5007764;28;20558;-71
2023/01/02 07:46:58;;;;;;;8.77;4.00;;;10.80;1.00;;;;;;5007385;28;20189;-71
2023/01/02 07:49:23;;;;;;;5.73;3.57;;;10.80;1.00;;;;;;5005057;28;20218;-72
2023/01/02 07:51:49;;;;;;;10.50;4.70;;;10.80;1.00;;;;;;5010265;28;20253;-72
2023/01/02 07:54:15;;;;;;;8.03;4.37;;;10.80;1.00;;;;;;5005964;28;20183;-72
2023/01/02 07:56:40;;;;;;;7.13;4.10;;;10.90;1.00;;;;;;5007902;28;20711;-72
2023/01/02 07:59:06;;;;;;;5.17;4.00;;;10.80;1.00;;;;;;5008251;28;20525;-72
2023/01/02 08:01:31;;;;;;;8.23;3.80;;;10.80;1.00;;;;;;5010991;28;20182;-72
2023/01/02 08:03:57;;;;;;;7.40;4.43;;;10.80;1.00;;;;;;5009212;28;20179;-72
2023/01/02 08:06:22;;;;;;;7.20;5.13;;;10.70;1.00;;;;;;5011976;28;20676;-72
2023/01/02 08:08:48;;;;;;;10.33;4.60;;;10.80;1.00;;;;;;5007505;28;20206;-72
2023/01/02 08:11:18;;;;;;;11.87;5.87;;;10.90;1.00;;;;;;5009013;28;20185;-72
2023/01/02 08:13:44;;;;;;;15.43;6.13;;;11.00;1.00;;;;;;5011199;28;20189;-70
2023/01/02 08:16:12;;;;;;;16.10;7.37;;;11.00;1.00;;;;;;5011156;28;20788;-72
2023/01/02 08:18:38;;;;;;;22.43;8.10;;;11.00;1.00;;;;;;5010242;28;20261;-71
2023/01/02 08:21:04;;;;;;;18.40;7.90;;;11.10;1.00;;;;;;5011152;28;20908;-69
2023/01/02 08:23:30;;;;;;;13.13;7.80;;;11.20;1.00;;;;;;5019575;28;20181;-72
2023/01/02 08:26:00;;;;;;;14.03;7.40;;;11.20;1.00;;;;;;5009866;28;20436;-72
2023/01/02 08:28:27;;;;;;;12.90;5.90;;;11.30;1.00;;;;;;5010556;28;20457;-72
2023/01/02 08:30:52;;;;;;;9.90;4.37;;;11.40;1.00;;;;;;5009919;28;20808;-69
2023/01/02 08:33:18;;;;;;;11.97;5.43;;;11.50;1.00;;;;;;5010402;28;20623;-71
2023/01/02 08:35:44;;;;;;;8.00;3.37;;;11.60;1.00;;;;;;5012356;28;20310;-73
2023/01/02 08:38:09;;;;;;;9.17;4.40;;;11.80;1.00;;;;;;5009280;28;20785;-72
2023/01/02 08:40:35;;;;;;;9.37;5.00;;;12.00;1.00;;;;;;5009972;28;20265;-71
2023/01/02 08:43:00;;;;;;;9.13;5.20;;;12.10;1.00;;;;;;5008018;28;20170;-71
2023/01/02 08:45:26;;;;;;;11.00;5.00;;;12.20;1.00;;;;;;5009694;28;20298;-71
2023/01/02 08:47:51;;;;;;;11.80;5.30;;;12.30;1.00;;;;;;5010337;28;20197;-71
2023/01/02 08:50:17;;;;;;;11.27;4.70;;;12.40;1.00;;;;;;5010458;28;20214;-71
2023/01/02 08:52:42;;;;;;;10.70;4.40;;;12.50;1.00;;;;;;5010582;28;20279;-71
2023/01/02 08:55:08;;;;;;;10.53;4.37;;;12.60;1.00;;;;;;5010653;28;20190;-70
2023/01/02 08:57:34;;;;;;;12.27;4.97;;;12.70;1.00;;;;;;5009598;28;20206;-70
2023/01/02 08:59:59;;;;;;;12.77;4.73;;;12.80;1.00;;;;;;5002988;28;20895;-71
2023/01/02 09:02:25;;;;;;;11.97;5.10;;;13.00;1.00;;;;;;5009549;28;20202;-71
2023/01/02 09:04:50;;;;;;;7.00;3.03;;;13.10;1.00;;;;;;5009131;28;20182;-71
2023/01/02 09:07:16;;;;;;;8.30;3.87;;;13.20;1.00;;;;;;5012018;28;20199;-72
2023/01/02 09:09:41;;;;;;;7.30;4.50;;;13.40;1.00;;;;;;5005055;28;20718;-74
2023/01/02 09:12:07;;;;;;;9.70;5.90;;;14.20;1.00;;;;;;5007552;28;20171;-74
2023/01/02 09:14:33;;;;;;;10.63;6.50;;;13.60;1.00;;;;;;5006231;28;20175;-73
2023/01/02 09:16:59;;;;;;;8.50;5.80;;;13.70;1.00;;;;;;5005864;28;20208;-73
2023/01/02 09:19:25;;;;;;;9.33;5.20;;;14.10;1.00;;;;;;5007117;28;20469;-74
2023/01/02 09:21:51;;;;;;;9.30;5.00;;;14.00;1.00;;;;;;5012931;28;20522;-74
2023/01/02 09:24:17;;;;;;;11.90;5.43;;;14.20;1.00;;;;;;5011628;28;20512;-74
2023/01/02 09:26:42;;;;;;;11.77;5.70;;;14.30;1.00;;;;;;5011467;28;20213;-76
2023/01/02 09:29:09;;;;;;;10.90;5.30;;;14.50;1.00;;;;;;5010182;28;20210;-75
2023/01/02 09:31:35;;;;;;;8.40;5.40;;;14.60;1.00;;;;;;5008500;28;20269;-73
2023/01/02 09:34:01;;;;;;;11.10;6.03;;;14.90;1.00;;;;;;5008023;28;20856;-75
2023/01/02 09:36:26;;;;;;;17.80;7.97;;;15.30;1.00;;;;;;5009167;28;20298;-74
2023/01/02 09:38:54;;;;;;;12.43;4.57;;;15.90;1.00;;;;;;5004620;28;20453;-74
2023/01/02 09:41:20;;;;;;;7.97;4.70;;;16.40;1.00;;;;;;5005898;28;20182;-75
2023/01/02 09:44:05;;;;;;;14.73;6.00;;;16.80;1.00;;;;;;5009229;28;20432;-73
2023/01/02 09:46:43;;;;;;;8.87;5.20;;;17.10;1.00;;;;;;5010291;28;20257;-74
2023/01/02 09:49:13;;;;;;;14.27;4.90;;;17.40;1.00;;;;;;5007289;28;20457;-75
2023/01/02 15:58:55;;;;;;;9.80;3.80;;;12.80;1.00;;;;;;5120196;27;20626;-71
2023/01/02 16:01:21;;;;;;;10.20;4.40;;;12.80;1.00;;;;;;5103069;28;20444;-70
2023/01/02 16:03:52;;;;;;;8.50;3.67;;;12.90;1.00;;;;;;5103107;28;20179;-69
2023/01/02 16:06:27;;;;;;;15.73;5.83;;;12.80;1.00;;;;;;5097418;28;20528;-70
2023/01/02 16:08:55;;;;;;;11.63;4.57;;;12.80;1.00;;;;;;5102818;28;20803;-71
2023/01/02 16:11:22;;;;;;;10.17;5.30;;;12.80;1.00;;;;;;5092375;28;20438;-67
2023/01/02 16:17:04;;;;;;;10.07;3.90;;;13.00;1.00;;;;;;5100374;28;20489;-70
2023/01/02 16:19:36;;;;;;;9.43;4.10;;;13.20;1.00;;;;;;5098601;28;20535;-68
2023/01/02 16:22:11;;;;;;;10.70;4.90;;;13.30;1.00;;;;;;5093535;28;20528;-69
2023/01/02 16:24:43;;;;;;;9.70;4.60;;;13.30;1.00;;;;;;5097806;28;20486;-68
2023/01/02 16:27:27;;;;;;;10.00;4.00;;;13.40;1.00;;;;;;5103243;28;20425;-68
2023/01/02 16:29:53;;;;;;;7.60;3.47;;;13.50;1.00;;;;;;5098899;28;20457;-69
2023/01/02 16:32:26;;;;;;;16.40;5.70;;;13.40;1.00;;;;;;5100388;28;20431;-68
2023/01/02 16:35:00;;;;;;;9.23;3.90;;;13.50;1.00;;;;;;5101620;28;20461;-69
2023/01/02 16:37:37;;;;;;;7.13;3.73;;;13.40;1.00;;;;;;5094778;28;20468;-69
2023/01/02 16:40:35;;;;;;;8.97;3.10;;;13.40;1.00;;;;;;5097015;28;20535;-69
2023/01/02 16:43:06;;;;;;;3.00;2.03;;;13.40;1.00;;;;;;5092657;28;20440;-68
2023/01/02 16:45:34;;;;;;;6.03;2.00;;;13.40;1.00;;;;;;5101324;28;20836;-68
2023/01/02 16:48:01;;;;;;;3.73;1.57;;;13.40;1.00;;;;;;5091149;28;20537;-69
2023/01/02 16:50:27;;;;;;;1.90;1.20;;;13.40;1.00;;;;;;5096956;28;20458;-68
2023/01/02 16:52:57;;;;;;;1.73;1.10;;;13.30;1.00;;;;;;5107150;28;20787;-69
2023/01/02 16:55:23;;;;;;;1.60;1.27;;;13.20;1.00;;;;;;5120356;27;20195;-68
2023/01/02 16:57:50;;;;;;;1.30;1.10;;;13.30;1.00;;;;;;5105335;28;20902;-72
2023/01/02 17:00:17;;;;;;;3.57;1.80;;;13.20;1.00;;;;;;5102533;28;20535;-68
2023/01/02 17:02:44;;;;;;;1.53;1.10;;;13.20;1.00;;;;;;5104629;28;20405;-70
2023/01/02 17:05:30;;;;;;;6.97;3.07;;;13.20;1.00;;;;;;5104787;28;20506;-69
2023/01/02 17:07:55;;;;;;;1.70;1.30;;;13.20;1.00;;;;;;5105169;28;21248;-70
2023/01/02 17:10:21;;;;;;;6.30;3.90;;;13.20;1.00;;;;;;5070289;28;20474;-68
2023/01/02 17:12:47;;;;;;;5.60;3.53;;;13.30;1.00;;;;;;5070560;28;20185;-69
2023/01/02 17:15:14;;;;;;;2.27;1.70;;;13.30;1.00;;;;;;5071487;28;20198;-69
2023/01/02 17:17:40;;;;;;;2.97;1.97;;;13.30;1.00;;;;;;5082196;28;20226;-69
2023/01/02 17:20:08;;;;;;;13.00;7.40;;;13.30;1.00;;;;;;5081041;28;20462;-68
2023/01/02 17:22:34;;;;;;;4.70;3.23;;;13.30;1.00;;;;;;5093699;28;20172;-68
2023/01/02 17:25:01;;;;;;;3.10;1.80;;;13.30;1.00;;;;;;5071392;28;20796;-67
2023/01/02 17:27:27;;;;;;;3.13;1.97;;;13.30;1.00;;;;;;5071330;28;20418;-68
2023/01/02 17:29:52;;;;;;;4.37;1.33;;;13.20;1.00;;;;;;5075992;28;20515;-71
2023/01/02 17:32:18;;;;;;;1.50;1.30;;;13.10;1.00;;;;;;5090493;28;20262;-69
2023/01/02 17:34:43;;;;;;;3.77;1.80;;;13.00;1.00;;;;;;5091328;28;20600;-68
2023/01/02 17:37:09;;;;;;;1.83;1.20;;;13.00;1.00;;;;;;5101638;28;20284;-70
2023/01/02 17:39:34;;;;;;;1.77;1.40;;;12.90;1.00;;;;;;5070565;28;20672;-67
2023/01/02 17:42:00;;;;;;;5.43;3.60;;;12.90;1.00;;;;;;5073839;28;20176;-68
2023/01/02 17:44:25;;;;;;;5.77;1.50;;;12.80;1.00;;;;;;5090730;28;20188;-68
2023/01/02 17:46:51;;;;;;;3.27;1.50;;;12.80;1.00;;;;;;5076613;28;20180;-68
2023/01/02 17:49:17;;;;;;;3.47;1.20;;;12.70;1.00;;;;;;5070097;28;20196;-68
2023/01/02 17:51:42;;;;;;;1.57;1.30;;;12.70;1.00;;;;;;5087853;28;20251;-69
2023/01/02 17:54:07;;;;;;;3.30;3.03;;;12.70;1.00;;;;;;5094025;28;20471;-67
2023/01/02 17:56:33;;;;;;;2.27;1.60;;;12.70;1.00;;;;;;5090776;28;20164;-68
2023/01/02 17:58:59;;;;;;;1.47;1.37;;;12.60;1.00;;;;;;5079230;28;20678;-68
2023/01/02 18:01:25;;;;;;;3.87;1.70;;;12.60;1.00;;;;;;5089955;28;20187;-69
2023/01/02 18:03:51;;;;;;;6.23;1.67;;;12.60;1.00;;;;;;5071559;28;20671;-68
2023/01/02 18:06:17;;;;;;;2.37;2.07;;;12.60;1.00;;;;;;5074764;28;20188;-69
2023/01/02 18:08:43;;;;;;;3.93;3.00;;;12.60;1.00;;;;;;5070635;28;20423;-68
2023/01/02 18:11:12;;;;;;;19.50;17.40;;;12.50;1.00;;;;;;5080690;28;20621;-68
2023/01/02 18:13:48;;;;;;;6.30;5.70;;;12.60;1.00;;;;;;5082343;28;20442;-68
2023/01/02 18:16:16;;;;;;;2.17;1.97;;;12.50;1.00;;;;;;5081468;28;20433;-70
2023/01/02 18:18:43;;;;;;;1.70;1.60;;;12.60;1.00;;;;;;5087095;28;20469;-67
2023/01/02 18:21:15;;;;;;;2.40;2.17;;;12.50;1.00;;;;;;5080931;28;20445;-68
2023/01/02 18:23:41;;;;;;;2.10;1.60;;;12.50;1.00;;;;;;5090019;28;20471;-67
2023/01/02 18:26:12;;;;;;;3.27;1.90;;;12.40;1.00;;;;;;5084213;28;20444;-67
2023/01/02 18:28:40;;;;;;;2.50;1.77;;;12.30;1.00;;;;;;5090934;28;20534;-69
2023/01/02 18:31:17;;;;;;;1.70;1.60;;;12.30;1.00;;;;;;5083617;28;20476;-67
2023/01/02 18:33:43;;;;;;;1.83;1.60;;;12.30;1.00;;;;;;5080177;28;20432;-68
2023/01/02 18:36:20;;;;;;;2.20;1.80;;;12.20;1.00;;;;;;5090530;28;20437;-69
2023/01/02 18:38:50;;;;;;;2.10;1.90;;;12.20;1.00;;;;;;5090097;28;20294;-66
2023/01/02 18:41:23;;;;;;;4.33;2.83;;;12.20;1.00;;;;;;5089390;28;20754;-69
2023/01/02 18:43:53;;;;;;;2.43;1.93;;;12.20;1.00;;;;;;5079725;28;20501;-69
2023/01/02 18:46:35;;;;;;;1.97;1.77;;;12.20;1.00;;;;;;5070534;28;20410;-67
2023/01/02 18:49:17;;;;;;;2.50;1.90;;;12.20;1.00;;;;;;5080815;28;20545;-68
2023/01/02 18:51:43;;;;;;;4.03;1.60;;;12.20;1.00;;;;;;5059897;22;20634;-71
2023/01/02 18:54:28;;;;;;;2.03;1.80;;;12.20;1.00;;;;;;5028400;28;20487;-71
2023/01/02 18:56:57;;;;;;;1.60;1.50;;;12.20;1.00;;;;;;5029675;28;20228;-71
2023/01/02 18:59:29;;;;;;;1.50;1.40;;;12.20;1.00;;;;;;5028023;28;20772;-71
2023/01/02 19:01:59;;;;;;;1.80;1.67;;;12.20;1.00;;;;;;5045283;28;20436;-70
2023/01/02 19:04:30;;;;;;;2.80;1.80;;;12.20;1.00;;;;;;5049144;28;20423;-71
2023/01/02 19:07:00;;;;;;;1.40;1.30;;;12.20;1.00;;;;;;5045469;28;20911;-71
2023/01/02 19:09:32;;;;;;;1.80;1.60;;;12.20;1.00;;;;;;5026906;28;20772;-70
2023/01/02 19:15:39;;;;;;;3.00;1.40;;;12.10;1.00;;;;;;4990446;28;21003;-71
2023/01/02 19:18:14;;;;;;;1.40;1.30;;;12.20;1.00;;;;;;5019551;28;20461;-71
2023/01/02 19:20:41;;;;;;;2.60;1.87;;;12.20;1.00;;;;;;5028555;28;20427;-71
2023/01/02 19:23:35;;;;;;;1.80;1.40;;;12.20;1.00;;;;;;5020755;28;20451;-71